Time;durP1;ratioP1;P1;durP2;ratioP2;P2;SDS_P1;SDS_P2;PMS_P1;PMS_P2;Temp;Humidity;BMP_temperature;BMP_pressure;BME280_temperature;BME280_humidity;BME280_pressure;Samples;Min_cycle;Max_cycle;Signal;HPM_P1;HPM_P2
2022/04/23 07:59:20;;;;;;;23.88;21.58;;;;;;;13.56;67.01;100251.69;5294042;27;20358;-79
2022/04/23 08:01:57;;;;;;;24.60;22.13;;;;;;;13.58;65.51;100246.63;5259807;28;20033;-79
2022/04/23 08:04:29;;;;;;;23.77;21.25;;;;;;;13.55;65.13;100242.53;5258201;28;20098;-75
2022/04/23 08:07:00;;;;;;;25.30;22.85;;;;;;;13.67;65.26;100247.44;5258729;28;20420;-77
2022/04/23 08:09:39;;;;;;;23.27;20.90;;;;;;;13.73;64.97;100237.81;5259291;28;20376;-81
2022/04/23 08:12:13;;;;;;;23.52;21.13;;;;;;;13.72;63.90;100236.16;5259437;28;20480;-77
2022/04/23 08:14:48;;;;;;;22.67;20.33;;;;;;;13.82;63.37;100235.81;5259790;28;20021;-78
2022/04/23 08:17:19;;;;;;;24.60;22.15;;;;;;;13.90;63.71;100226.66;5259250;28;20029;-80
2022/04/23 08:19:51;;;;;;;24.45;22.00;;;;;;;13.96;63.19;100229.28;5258474;28;20022;-78
2022/04/23 08:22:25;;;;;;;20.20;18.13;;;;;;;14.07;64.37;100236.19;5259000;28;20108;-77
2022/04/23 08:25:23;;;;;;;24.33;21.92;;;;;;;14.11;63.59;100218.47;5258323;28;20022;-75
2022/04/23 08:30:54;;;;;;;23.70;21.40;;;;;;;14.10;61.73;100230.75;5248023;28;20496;-76
2022/04/23 08:33:57;;;;;;;24.50;22.17;;;;;;;14.20;61.99;100226.81;5257722;28;20033;-76
2022/04/23 08:36:23;;;;;;;23.45;21.23;;;;;;;14.30;61.96;100229.28;5258256;28;20041;-76
2022/04/23 08:38:57;;;;;;;24.65;22.10;;;;;;;14.37;61.98;100223.22;5257250;28;20420;-75
2022/04/23 08:41:29;;;;;;;24.38;21.90;;;;;;;14.41;61.26;100217.78;5258777;28;20021;-75
2022/04/23 08:44:05;;;;;;;21.13;19.05;;;;;;;14.48;61.85;100230.06;5258470;28;20013;-74
2022/04/23 08:46:46;;;;;;;23.17;20.95;;;;;;;14.59;61.45;100224.16;5257130;28;20093;-73
2022/04/23 08:49:18;;;;;;;24.45;22.15;;;;;;;14.60;61.19;100215.47;5256201;28;20041;-72
2022/04/23 08:52:14;;;;;;;24.40;21.90;;;;;;;14.78;62.11;100211.47;5257822;28;20029;-72
2022/04/23 08:54:51;;;;;;;24.25;21.65;;;;;;;14.86;59.95;100225.75;5257602;28;20452;-73
2022/04/23 09:00:26;;;;;;;24.00;21.60;;;;;;;14.87;59.60;100224.59;5257364;28;20045;-75
2022/04/23 09:03:01;;;;;;;24.05;21.80;;;;;;;14.95;59.87;100230.13;5259315;28;20476;-79
2022/04/23 09:05:36;;;;;;;25.07;22.43;;;;;;;14.99;59.29;100233.91;5259516;28;20097;-75
2022/04/23 09:08:07;;;;;;;25.75;23.20;;;;;;;14.94;59.40;100227.69;5256773;28;20064;-76
2022/04/23 09:10:54;;;;;;;23.52;21.15;;;;;;;15.04;59.73;100224.53;5243436;28;20044;-74
2022/04/23 09:13:26;;;;;;;24.95;22.48;;;;;;;15.05;59.83;100233.72;5243737;28;20049;-77
2022/04/23 09:24:49;;;;;;;24.92;22.42;;;;;;;15.12;59.46;100240.41;5250017;28;20041;-77
2022/04/23 09:27:27;;;;;;;27.60;24.73;;;;;;;15.08;58.97;100233.84;5247695;28;20076;-81
2022/04/23 09:30:01;;;;;;;29.63;26.85;;;;;;;15.18;58.70;100241.84;5248223;28;20022;-76
2022/04/23 09:32:32;;;;;;;27.80;25.20;;;;;;;15.18;58.85;100241.84;5245018;28;20039;-80
2022/04/23 09:35:12;;;;;;;29.85;27.05;;;;;;;15.25;58.96;100235.75;5259236;28;20025;-82
2022/04/23 09:40:33;;;;;;;29.95;26.92;;;;;;;15.14;59.29;100240.91;5254355;28;20033;-83
2022/04/23 09:43:06;;;;;;;26.70;24.23;;;;;;;15.23;59.57;100238.06;5243144;28;20025;-81
2022/04/23 09:45:44;;;;;;;30.50;27.45;;;;;;;15.31;59.15;100239.19;5242737;28;20071;-80
2022/04/23 09:48:20;;;;;;;29.60;26.80;;;;;;;15.30;58.81;100237.56;5242874;28;20118;-77
2022/04/23 09:50:51;;;;;;;30.92;27.92;;;;;;;15.48;58.83;100222.31;5242330;28;20116;-78
2022/04/23 09:53:30;;;;;;;28.17;25.58;;;;;;;15.60;58.18;100225.22;5234815;28;20449;-77
2022/04/23 09:56:05;;;;;;;26.48;24.00;;;;;;;15.73;57.77;100222.53;5242782;28;20025;-77
2022/04/23 09:58:39;;;;;;;25.73;23.42;;;;;;;15.92;57.10;100230.44;5240978;28;20053;-77
2022/04/23 10:01:10;;;;;;;38.50;34.57;;;;;;;15.97;56.58;100227.44;5243244;28;20472;-81
2022/04/23 10:03:46;;;;;;;37.55;32.60;;;;;;;16.06;56.35;100215.03;5242226;28;20028;-76
2022/04/23 10:06:18;;;;;;;;;;;;;;;16.24;56.38;100209.28;5243161;28;20030;-79
2022/04/23 10:08:57;;;;;;;26.23;23.77;;;;;;;16.28;55.56;100215.81;5242222;28;19917;-81
2022/04/23 10:11:33;;;;;;;28.05;25.55;;;;;;;16.35;55.27;100216.09;5240686;28;20147;-80
2022/04/23 10:14:10;;;;;;;27.38;24.88;;;;;;;16.35;55.21;100207.69;5242713;28;20026;-79
2022/04/23 10:16:43;;;;;;;26.92;23.85;;;;;;;16.39;55.62;100205.03;5242514;28;20025;-80
2022/04/23 10:19:15;;;;;;;26.45;23.77;;;;;;;16.55;55.59;100199.59;5241215;28;20037;-77
2022/04/23 10:22:03;;;;;;;27.83;25.15;;;;;;;16.63;54.71;100196.69;5241159;28;20362;-76
2022/04/23 10:24:55;;;;;;;41.67;37.55;;;;;;;16.79;54.92;100194.06;5240996;28;20026;-75
2022/04/23 10:27:28;;;;;;;29.58;26.58;;;;;;;16.85;54.25;100205.91;5235259;28;20049;-80
2022/04/23 10:30:04;;;;;;;27.52;25.13;;;;;;;16.99;54.10;100194.34;5241529;28;20524;-77
2022/04/23 10:32:39;;;;;;;26.77;24.17;;;;;;;17.04;53.58;100194.13;5240665;28;20028;-76
2022/04/23 10:35:16;;;;;;;29.00;26.27;;;;;;;17.11;53.01;100197.16;5242073;28;20076;-76
2022/04/23 10:37:49;;;;;;;26.85;24.35;;;;;;;17.13;53.29;100203.25;5241774;28;20116;-76
2022/04/23 10:40:21;;;;;;;26.13;23.40;;;;;;;17.11;53.24;100203.56;5241079;28;20496;-74
2022/04/23 10:43:04;;;;;;;28.10;25.15;;;;;;;17.17;53.26;100199.38;5241041;28;20049;-70
2022/04/23 10:45:42;;;;;;;28.75;26.13;;;;;;;17.09;53.18;100200.31;5242140;28;20026;-84
2022/04/23 10:48:19;;;;;;;29.73;26.92;;;;;;;16.93;53.26;100197.38;5243178;28;20034;-77
2022/04/23 10:51:12;;;;;;;31.50;28.50;;;;;;;17.02;53.35;100199.25;5241847;28;20033;-79
2022/04/23 10:53:43;;;;;;;29.65;26.80;;;;;;;17.14;52.69;100188.88;5241229;28;20116;-79
2022/04/23 10:56:16;;;;;;;28.07;25.27;;;;;;;17.13;52.39;100200.44;5241017;28;20489;-79
2022/04/23 10:58:48;;;;;;;27.27;24.58;;;;;;;17.31;52.60;100201.03;5246652;28;20299;-77
2022/04/23 11:01:20;;;;;;;27.67;24.83;;;;;;;17.25;52.35;100192.00;5241879;28;20071;-84
2022/04/23 11:03:55;;;;;;;45.75;41.55;;;;;;;17.32;51.96;100200.66;5242101;28;20036;-79
2022/04/23 11:12:28;;;;;;;27.20;24.90;;;;;;;17.50;51.64;100186.41;5240592;28;20057;-72
2022/04/23 11:15:01;;;;;;;25.88;23.58;;;;;;;17.42;51.86;100190.16;5240104;28;20029;-79
2022/04/23 11:17:32;;;;;;;26.98;24.40;;;;;;;17.49;51.83;100184.78;5243214;28;20029;-80
2022/04/23 11:20:05;;;;;;;27.67;25.25;;;;;;;17.62;51.48;100180.78;5242263;28;20036;-81
2022/04/23 11:22:37;;;;;;;26.92;24.42;;;;;;;17.51;51.07;100182.41;5241810;28;20116;-81
2022/04/23 11:25:11;;;;;;;29.00;26.40;;;;;;;17.43;51.01;100186.16;5241358;28;20041;-81
2022/04/23 11:27:48;;;;;;;27.83;25.33;;;;;;;17.54;51.05;100190.94;5240887;28;20544;-80
2022/04/23 11:30:29;;;;;;;27.85;25.15;;;;;;;17.49;51.01;100187.56;5241254;28;20499;-80
2022/04/23 11:33:11;;;;;;;27.88;25.17;;;;;;;17.48;51.96;100183.13;5241591;28;20033;-81
2022/04/23 11:35:42;;;;;;;26.83;24.33;;;;;;;17.52;51.40;100179.25;5234558;28;20117;-79
2022/04/23 11:38:22;;;;;;;27.92;25.08;;;;;;;17.56;51.21;100184.97;5240970;28;20030;-81
2022/04/23 11:40:54;;;;;;;30.40;26.70;;;;;;;17.48;50.70;100171.91;5241515;28;20487;-76
2022/04/23 11:43:33;;;;;;;25.33;23.00;;;;;;;17.71;50.79;100170.22;5240487;28;20034;-79
2022/04/23 11:46:08;;;;;;;26.38;23.75;;;;;;;17.66;50.50;100173.28;5240625;28;20096;-77
2022/04/23 11:48:48;;;;;;;26.85;24.45;;;;;;;17.58;51.01;100177.03;5240079;28;20029;-76
2022/04/23 11:51:21;;;;;;;26.17;23.77;;;;;;;17.71;50.41;100175.00;5240228;28;20037;-77
2022/04/23 11:54:00;;;;;;;25.08;22.75;;;;;;;17.80;50.36;100168.13;5240891;28;20396;-78
2022/04/23 11:56:33;;;;;;;26.77;24.17;;;;;;;17.87;49.67;100166.69;5238333;28;20022;-77
2022/04/23 11:59:11;;;;;;;26.83;24.27;;;;;;;17.99;49.91;100152.63;5238402;28;20120;-78
2022/04/23 12:01:44;;;;;;;25.25;22.77;;;;;;;18.26;49.35;100162.25;5240023;28;20039;-75
2022/04/23 12:04:15;;;;;;;26.35;23.95;;;;;;;18.31;48.42;100155.56;5244973;28;20033;-80
2022/04/23 12:06:46;;;;;;;24.17;21.85;;;;;;;18.49;48.44;100154.03;5238794;28;20699;-78
2022/04/23 12:09:17;;;;;;;24.73;22.52;;;;;;;18.51;48.28;100162.94;5234430;28;20036;-77
2022/04/23 12:11:59;;;;;;;24.98;22.77;;;;;;;18.62;48.32;100155.59;5239261;28;20104;-79
2022/04/23 12:14:30;;;;;;;23.38;21.17;;;;;;;18.67;47.99;100144.09;5240110;28;20104;-79
2022/04/23 12:17:08;;;;;;;24.40;21.90;;;;;;;18.69;48.17;100138.13;5239829;28;20110;-78
2022/04/23 12:19:39;;;;;;;22.90;20.80;;;;;;;18.74;47.55;100137.84;5240652;28;20057;-78
2022/04/23 12:22:27;;;;;;;23.50;21.20;;;;;;;18.78;47.21;100137.97;5240930;28;20034;-78
2022/04/23 12:25:17;;;;;;;23.63;21.45;;;;;;;18.80;47.33;100136.44;5240308;28;20025;-78
2022/04/23 12:27:59;;;;;;;23.80;21.35;;;;;;;18.64;46.50;100130.78;5232251;28;20361;-78
2022/04/23 12:42:10;;;;;;;23.25;21.08;;;;;;;18.84;46.72;100114.03;5240450;28;20029;-77
2022/04/23 12:44:44;;;;;;;22.45;20.13;;;;;;;19.00;45.80;100108.41;5239386;28;20030;-80
2022/04/23 12:47:17;;;;;;;22.00;19.85;;;;;;;19.07;45.62;100114.19;5243165;28;20025;-77
2022/04/23 12:49:51;;;;;;;20.70;18.70;;;;;;;19.32;45.64;100114.78;5243639;28;20075;-76
2022/04/23 12:52:32;;;;;;;23.00;20.45;;;;;;;19.14;45.16;100110.75;5243292;28;20088;-77
2022/04/23 12:55:30;;;;;;;22.88;20.58;;;;;;;19.06;45.30;100113.38;5242813;28;20025;-77
2022/04/23 12:58:01;;;;;;;23.85;21.38;;;;;;;18.96;45.87;100099.88;5241307;28;20046;-77
2022/04/23 13:00:34;;;;;;;22.67;20.47;;;;;;;18.84;45.77;100105.59;5246333;28;20036;-80
2022/04/23 13:03:35;;;;;;;22.52;20.52;;;;;;;18.79;46.16;100103.06;5255761;28;20703;-81
2022/04/23 13:08:58;;;;;;;30.70;27.77;;;;;;;18.75;46.36;100094.56;5244321;28;20045;-73
2022/04/23 13:11:30;;;;;;;20.45;18.55;;;;;;;18.61;45.78;100095.00;5243737;28;20041;-77
2022/04/23 13:14:06;;;;;;;21.20;19.20;;;;;;;18.52;46.44;100091.53;5242650;28;20095;-75
2022/04/23 13:16:38;;;;;;;20.48;18.75;;;;;;;18.53;47.18;100092.34;5240321;28;20105;-77
2022/04/23 13:19:09;;;;;;;21.02;19.23;;;;;;;18.53;46.31;100087.56;5243251;28;20504;-77
2022/04/23 13:21:43;;;;;;;21.65;19.63;;;;;;;18.45;46.29;100085.75;5242742;28;20021;-76
2022/04/23 13:24:16;;;;;;;18.88;17.17;;;;;;;18.51;47.20;100089.94;5244568;28;20076;-81
2022/04/23 13:26:47;;;;;;;21.85;19.73;;;;;;;18.55;46.60;100090.81;5246858;28;20029;-75
2022/04/23 13:29:21;;;;;;;21.02;18.83;;;;;;;18.62;46.69;100088.19;5246469;28;20037;-76
2022/04/23 13:31:56;;;;;;;21.92;19.10;;;;;;;18.90;45.80;100076.88;5244735;28;20365;-77
2022/04/23 13:34:28;;;;;;;20.15;18.33;;;;;;;19.11;44.52;100079.38;5243161;28;20533;-78
2022/04/23 13:37:02;;;;;;;23.17;20.73;;;;;;;19.28;44.37;100080.16;5242654;28;20025;-78
2022/04/23 13:39:33;;;;;;;16.45;14.85;;;;;;;19.48;43.60;100072.53;5243355;28;20105;-76
2022/04/23 13:42:05;;;;;;;17.80;14.48;;;;;;;19.68;43.17;100076.22;5242132;28;20116;-78
2022/04/23 13:44:37;;;;;;;16.17;14.48;;;;;;;19.79;42.50;100071.66;5244658;28;20036;-79
2022/04/23 13:47:08;;;;;;;18.58;15.55;;;;;;;19.88;41.88;100071.41;5243245;28;20101;-80
2022/04/23 13:49:40;;;;;;;16.33;14.65;;;;;;;19.97;41.59;100075.63;5242826;28;20522;-79
2022/04/23 13:52:20;;;;;;;15.32;13.93;;;;;;;20.17;42.02;100072.75;5244594;28;20021;-79
2022/04/23 13:54:51;;;;;;;14.73;13.18;;;;;;;20.12;40.48;100075.88;5243524;28;20194;-80
2022/04/23 13:57:24;;;;;;;13.05;11.80;;;;;;;20.03;41.48;100067.69;5246946;28;20052;-78
2022/04/23 13:59:55;;;;;;;14.15;12.65;;;;;;;19.83;40.88;100069.69;5243615;28;20029;-81
2022/04/23 14:11:03;;;;;;;;;;;;;;;20.34;40.34;100061.00;5245319;28;20034;-80
2022/04/23 14:13:34;;;;;;;12.10;10.82;;;;;;;20.20;40.22;100055.94;5247331;28;19917;-81
2022/04/23 14:16:06;;;;;;;11.68;10.55;;;;;;;20.26;40.16;100058.47;5246086;28;20026;-82
2022/04/23 14:18:38;;;;;;;13.00;11.68;;;;;;;20.38;39.94;100047.81;5247397;28;20029;-83
2022/04/23 14:21:09;;;;;;;12.85;11.57;;;;;;;20.50;39.38;100046.81;5248330;28;20039;-84
2022/04/23 14:23:40;;;;;;;14.63;13.32;;;;;;;20.48;39.61;100048.38;5247115;28;20104;-78
2022/04/23 14:26:12;;;;;;;18.15;14.05;;;;;;;20.37;40.79;100054.63;5246417;28;20029;-81
2022/04/23 14:28:43;;;;;;;11.82;10.68;;;;;;;20.27;39.82;100049.63;5253487;28;20477;-78
2022/04/23 14:31:14;;;;;;;11.45;10.02;;;;;;;20.35;39.23;100039.31;5249660;28;20026;-78
2022/04/23 14:33:45;;;;;;;11.20;10.13;;;;;;;20.27;38.75;100044.00;5242786;28;20087;-81
2022/04/23 14:36:17;;;;;;;11.63;10.45;;;;;;;20.29;38.50;100043.63;5245132;28;20017;-73
2022/04/23 14:38:50;;;;;;;11.63;9.80;;;;;;;20.28;39.04;100037.19;5240050;28;20021;-74
2022/04/23 14:41:23;;;;;;;10.20;9.07;;;;;;;20.26;39.25;100036.75;5240919;28;20051;-74
2022/04/23 14:43:54;;;;;;;11.15;9.88;;;;;;;20.18;39.67;100033.00;5241996;28;20025;-75
2022/04/23 14:46:27;;;;;;;13.25;11.77;;;;;;;20.05;39.28;100025.91;5239966;28;20029;-75
2022/04/23 14:48:59;;;;;;;12.73;10.90;;;;;;;20.04;41.11;100037.53;5239584;28;20413;-75
2022/04/23 14:54:20;;;;;;;12.25;11.15;;;;;;;20.03;40.94;100038.72;5240232;28;20037;-76
2022/04/23 14:56:51;;;;;;;13.40;11.90;;;;;;;19.82;40.28;100034.31;5241190;28;20030;-76
2022/04/23 14:59:24;;;;;;;12.65;11.43;;;;;;;19.89;40.51;100025.19;5248272;28;20029;-76
2022/04/23 15:01:55;;;;;;;12.85;10.77;;;;;;;19.93;39.90;100032.53;5242132;28;20021;-80
2022/04/23 15:04:26;;;;;;;10.93;9.93;;;;;;;19.87;39.08;100027.59;5241497;28;20044;-76
2022/04/23 15:06:58;;;;;;;9.75;8.93;;;;;;;19.94;40.00;100025.72;5241750;28;20852;-79
2022/04/23 15:09:29;;;;;;;10.57;9.65;;;;;;;19.87;38.93;100024.78;5242134;28;20029;-79
2022/04/23 15:12:00;;;;;;;14.68;13.38;;;;;;;19.94;40.16;100025.72;5244038;28;20029;-80
2022/04/23 15:14:33;;;;;;;12.32;11.13;;;;;;;20.05;40.01;100019.47;5236206;28;20075;-81
2022/04/23 15:17:05;;;;;;;12.25;10.10;;;;;;;20.15;39.04;100024.50;5244535;28;20113;-81
2022/04/23 15:19:36;;;;;;;12.93;11.00;;;;;;;19.97;39.47;100024.97;5252607;28;20539;-78
2022/04/23 15:22:08;;;;;;;13.48;11.50;;;;;;;19.91;39.30;100031.25;5253186;28;20067;-79
2022/04/23 15:24:39;;;;;;;15.18;12.68;;;;;;;19.86;39.76;100032.38;5252467;28;20025;-84
2022/04/23 15:27:16;;;;;;;14.43;12.25;;;;;;;19.83;40.65;100024.69;5254843;28;20037;-82
2022/04/23 15:29:47;;;;;;;13.07;10.55;;;;;;;19.85;39.91;100027.94;5253886;28;20087;-79
2022/04/23 15:32:20;;;;;;;12.55;11.23;;;;;;;19.86;39.52;100040.00;5257178;28;20073;-81
2022/04/23 15:34:52;;;;;;;13.05;11.65;;;;;;;19.83;38.76;100030.31;5255697;28;20033;-83
2022/04/23 15:37:23;;;;;;;13.25;11.95;;;;;;;19.88;39.26;100030.00;5254086;28;20045;-82
2022/04/23 15:39:55;;;;;;;15.68;14.20;;;;;;;19.95;40.40;100021.72;5251872;28;20093;-82
2022/04/23 15:42:26;;;;;;;19.15;17.35;;;;;;;19.89;40.54;100022.38;5258210;28;20048;-83
2022/04/23 15:44:57;;;;;;;19.75;17.85;;;;;;;19.87;41.09;100031.22;5248400;28;20021;-82
2022/04/23 15:47:29;;;;;;;18.83;16.90;;;;;;;19.72;41.26;100029.31;5248911;28;20053;-79
2022/04/23 15:50:00;;;;;;;21.42;16.73;;;;;;;19.64;41.30;100033.94;5244512;28;20113;-81
2022/04/23 15:52:32;;;;;;;18.67;16.88;;;;;;;19.46;41.42;100032.75;5257144;28;20021;-85
2022/04/23 15:55:04;;;;;;;19.08;15.45;;;;;;;19.39;41.70;100033.41;5260909;28;20021;-83
2022/04/23 15:57:36;;;;;;;22.38;18.02;;;;;;;19.21;41.42;100033.03;5262219;28;20064;-87
2022/04/23 16:00:09;;;;;;;19.48;17.10;;;;;;;19.18;41.81;100032.97;5306746;22;20038;-77
2022/04/23 16:02:40;;;;;;;18.80;17.10;;;;;;;19.21;41.81;100032.22;5230826;28;20030;-78
2022/04/23 16:05:11;;;;;;;17.98;16.17;;;;;;;19.37;41.79;100029.34;5228802;28;20026;-81
2022/04/23 16:07:44;;;;;;;22.02;19.67;;;;;;;19.39;41.36;100033.41;5228459;28;20053;-75
2022/04/23 16:10:18;;;;;;;18.33;16.48;;;;;;;19.40;41.35;100028.59;5232050;28;20034;-86
2022/04/23 16:12:49;;;;;;;17.05;15.40;;;;;;;19.41;41.46;100031.06;5239141;28;20089;-84
2022/04/23 16:15:20;;;;;;;17.75;15.95;;;;;;;19.38;41.02;100030.97;5236751;28;20034;-84
2022/04/23 16:17:51;;;;;;;17.55;15.95;;;;;;;19.28;40.90;100032.38;5235933;28;20053;-83
2022/04/23 16:20:23;;;;;;;17.20;15.35;;;;;;;19.28;41.64;100030.38;5237784;28;20104;-81
2022/04/23 16:22:55;;;;;;;16.75;15.10;;;;;;;19.29;41.73;100028.38;5232719;28;20095;-79
2022/04/23 16:25:28;;;;;;;16.67;15.05;;;;;;;19.27;41.60;100030.72;5222219;28;20026;-81
2022/04/23 16:27:59;;;;;;;16.98;14.60;;;;;;;19.28;41.33;100040.81;5230012;28;20559;-80
2022/04/23 16:30:30;;;;;;;15.27;13.68;;;;;;;19.33;42.04;100020.84;5232180;28;20022;-79
2022/04/23 16:33:02;;;;;;;16.13;14.55;;;;;;;19.35;41.51;100018.44;5233252;28;20126;-80
2022/04/23 16:35:33;;;;;;;14.70;13.30;;;;;;;19.22;41.52;100016.97;5230368;28;20022;-79
2022/04/23 16:46:37;;;;;;;16.90;15.27;;;;;;;19.34;41.63;100016.84;5234121;28;20061;-79
2022/04/23 16:49:09;;;;;;;19.20;15.40;;;;;;;19.18;41.52;100024.53;5230328;28;20061;-79
2022/04/23 16:51:40;;;;;;;18.65;16.77;;;;;;;19.23;41.96;100032.66;5233431;28;20046;-79
2022/04/23 16:54:12;;;;;;;17.17;15.48;;;;;;;19.03;42.07;100031.81;5229471;28;20128;-78
2022/04/23 16:56:43;;;;;;;17.40;15.63;;;;;;;18.99;42.09;100026.09;5229080;28;20041;-80
2022/04/23 16:59:14;;;;;;;17.13;15.32;;;;;;;18.98;42.30;100016.06;5238036;28;20060;-79
2022/04/23 17:01:45;;;;;;;16.15;14.52;;;;;;;18.88;41.64;100033.47;5236755;28;20034;-79
2022/04/23 17:04:17;;;;;;;77.65;70.65;;;;;;;18.92;42.11;100025.13;5229121;28;20026;-80
2022/04/23 17:06:49;;;;;;;173.77;156.55;;;;;;;18.91;42.24;100027.13;5231132;28;20077;-77
2022/04/23 17:09:20;;;;;;;17.13;15.52;;;;;;;18.92;42.97;100031.56;5234067;28;20480;-75
2022/04/23 17:11:52;;;;;;;17.58;15.77;;;;;;;18.80;41.95;100026.06;5232017;28;20049;-79
2022/04/23 17:14:23;;;;;;;17.23;14.57;;;;;;;18.71;42.55;100031.03;5235014;28;20037;-78
2022/04/23 17:16:55;;;;;;;16.58;14.90;;;;;;;18.61;42.71;100027.63;5234238;28;20064;-83
2022/04/23 17:19:26;;;;;;;16.73;15.10;;;;;;;18.59;42.58;100034.78;5233058;28;20010;-80
2022/04/23 17:21:57;;;;;;;16.90;15.32;;;;;;;18.60;42.71;100033.56;5228945;28;20036;-80
2022/04/23 17:24:29;;;;;;;14.88;13.48;;;;;;;18.59;43.02;100041.19;5232262;28;20544;-78
2022/04/23 17:27:04;;;;;;;16.75;15.02;;;;;;;18.54;43.15;100044.28;5227743;28;20048;-79
2022/04/23 17:29:35;;;;;;;15.77;14.27;;;;;;;18.48;43.08;100040.09;5228979;28;20034;-77
